createdAt,value
2023-03-05T00:00:00.000Z,51.25
2023-03-05T00:15:00.000Z,53.65
2023-03-05T00:30:00.000Z,54.71
2023-03-05T00:45:00.000Z,54.13
2023-03-05T01:00:00.000Z,50.11
2023-03-05T01:15:00.000Z,51.04
2023-03-05T01:30:00.000Z,52.98
2023-03-05T01:45:00.000Z,53.39
2023-03-05T02:00:00.000Z,54.06
2023-03-05T02:15:00.000Z,53.71
2023-03-05T02:30:00.000Z,53.58
2023-03-05T02:45:00.000Z,54.91
2023-03-05T03:00:00.000Z,56.31
2023-03-05T03:15:00.000Z,65.92
2023-03-05T03:30:00.000Z,67.61
2023-03-05T03:45:00.000Z,67.41
2023-03-05T04:00:00.000Z,70.47
2023-03-05T04:15:00.000Z,68.45
2023-03-05T04:30:00.000Z,70.15
2023-03-05T04:45:00.000Z,67.93
2023-03-05T05:00:00.000Z,67.27
2023-03-05T05:15:00.000Z,66.11
2023-03-05T05:30:00.000Z,67.85
2023-03-05T05:45:00.000Z,68.56
2023-03-05T06:00:00.000Z,66.47
2023-03-05T06:15:00.000Z,67.68
2023-03-05T06:30:00.000Z,69.38
2023-03-05T06:45:00.000Z,67.31
2023-03-05T07:00:00.000Z,67.72
2023-03-05T07:15:00.000Z,66.74
2023-03-05T07:30:00.000Z,65.19
2023-03-05T07:45:00.000Z,62.62
2023-03-05T08:00:00.000Z,64.06
2023-03-05T08:15:00.000Z,66.12
2023-03-05T08:30:00.000Z,54.62
2023-03-05T08:45:00.000Z,51.55
2023-03-05T09:00:00.000Z,48.79
2023-03-05T09:15:00.000Z,46.38
2023-03-05T09:30:00.000Z,46.11
2023-03-05T09:45:00.000Z,43.47
2023-03-05T10:00:00.000Z,43.71
2023-03-05T10:15:00.000Z,44.22
2023-03-05T10:30:00.000Z,42.93
2023-03-05T10:45:00.000Z,42.47
2023-03-05T11:00:00.000Z,41.8
2023-03-05T11:15:00.000Z,41.6
2023-03-05T11:30:00.000Z,40.15
2023-03-05T11:45:00.000Z,38.14
2023-03-05T12:00:00.000Z,34.84
2023-03-05T12:15:00.000Z,29.32
2023-03-05T12:30:00.000Z,28.94
2023-03-05T12:45:00.000Z,29.18
2023-03-05T13:00:00.000Z,30.53
2023-03-05T13:15:00.000Z,31.74
2023-03-05T13:30:00.000Z,31.47
2023-03-05T13:45:00.000Z,32.76
2023-03-05T14:00:00.000Z,32.46
2023-03-05T14:15:00.000Z,28.65
2023-03-05T14:30:00.000Z,27.75
2023-03-05T14:45:00.000Z,27.35
2023-03-05T15:00:00.000Z,27.08
2023-03-05T15:15:00.000Z,27.04
2023-03-05T15:30:00.000Z,26.6
2023-03-05T15:45:00.000Z,24.35
2023-03-05T16:00:00.000Z,26.24
2023-03-05T16:15:00.000Z,27.95
2023-03-05T16:30:00.000Z,28.27
2023-03-05T16:45:00.000Z,29.19
2023-03-05T17:00:00.000Z,29.45
2023-03-05T17:15:00.000Z,31.01
2023-03-05T17:30:00.000Z,31.67
2023-03-05T17:45:00.000Z,33.82
2023-03-05T18:00:00.000Z,35.72
2023-03-05T18:15:00.000Z,35.35
2023-03-05T18:30:00.000Z,36.08
2023-03-05T18:45:00.000Z,36.39
2023-03-05T19:00:00.000Z,39.89
2023-03-05T19:15:00.000Z,41.54
2023-03-05T19:30:00.000Z,38.95
2023-03-05T19:45:00.000Z,37.87
2023-03-05T20:00:00.000Z,38.75
2023-03-05T20:15:00.000Z,37.88
2023-03-05T20:30:00.000Z,37.06
2023-03-05T20:45:00.000Z,41.45
2023-03-05T21:00:00.000Z,40.27
2023-03-05T21:15:00.000Z,40.31
2023-03-05T21:30:00.000Z,40.8
2023-03-05T21:45:00.000Z,40
2023-03-05T22:00:00.000Z,39.72
2023-03-05T22:15:00.000Z,42.19
2023-03-05T22:30:00.000Z,41.52
2023-03-05T22:45:00.000Z,39.2
2023-03-05T23:00:00.000Z,38.72
2023-03-05T23:15:00.000Z,38.67
2023-03-05T23:30:00.000Z,38.93
2023-03-05T23:45:00.000Z,38.68
